Locust, New Jersey
Current Conditions -  °F | °C
As of 12:35 PM on Friday 24 Oct 2014 (Local Time) from KBLM Reporting Station
Scattered Clouds Scattered Clouds  
Wind Chill: 16°   Ceiling: Unl
Heat Index: 16°   Visibility: 10mi
Dew Point:   Wind: 21mph
Humidity: 52%   Direction: 340°NNW
Pressure: 29.81"   Gusts: 31mph
Location:  40.3613°N, 74.0061°W
Report Text: KBLM 241635Z AUTO 34018G27KT 10SM SCT034 16/06 A2981 RMK AO1
Loading
Personal Weather Stations






























Interactive Weather Map
Tropical Storm Tracking
New forecast layout! Learn more

10-Day Weather Forecast

Advertisements
Track Severe Weather on mobile